createdAt,value
2019-02-10T00:01:18.071Z,3.80
2019-02-10T00:03:47.113Z,3.80
2019-02-10T00:06:24.334Z,3.90
2019-02-10T00:08:47.007Z,3.90
2019-02-10T00:11:16.081Z,4.00
2019-02-10T00:13:45.205Z,4.00
2019-02-10T00:16:19.073Z,4.00
2019-02-10T00:18:48.166Z,4.10
2019-02-10T00:21:17.258Z,4.10
2019-02-10T00:23:46.356Z,4.20
2019-02-10T00:26:15.419Z,4.30
2019-02-10T00:28:44.521Z,4.30
2019-02-10T00:31:13.580Z,4.30
2019-02-10T00:33:42.668Z,4.40
2019-02-10T00:36:11.677Z,4.40
2019-02-10T00:38:40.771Z,4.50
2019-02-10T00:41:09.854Z,4.50
2019-02-10T00:43:38.919Z,4.50
2019-02-10T00:46:07.973Z,4.50
2019-02-10T00:48:37.145Z,4.50
2019-02-10T00:51:06.206Z,4.60
2019-02-10T00:53:35.274Z,4.60
2019-02-10T00:56:04.364Z,4.60
2019-02-10T00:58:33.428Z,4.60
2019-02-10T01:01:02.600Z,4.70
2019-02-10T01:03:31.659Z,4.70
2019-02-10T01:06:00.916Z,4.70
2019-02-10T01:08:30.065Z,4.70
2019-02-10T01:10:59.255Z,4.70
2019-02-10T01:13:28.405Z,4.70
2019-02-10T01:15:57.509Z,4.70
2019-02-10T01:18:26.595Z,4.70
2019-02-10T01:20:55.686Z,4.70
2019-02-10T01:23:24.869Z,4.80
2019-02-10T01:25:53.948Z,4.90
2019-02-10T01:28:23.004Z,5.00
2019-02-10T01:30:52.493Z,5.00
2019-02-10T01:33:21.544Z,5.10
2019-02-10T01:35:50.623Z,5.20
2019-02-10T01:38:19.689Z,5.20
2019-02-10T01:40:48.750Z,5.30
2019-02-10T01:43:17.729Z,5.30
2019-02-10T01:45:46.794Z,5.40
2019-02-10T01:48:15.845Z,5.50
2019-02-10T01:50:44.951Z,5.50
2019-02-10T01:53:13.994Z,5.50
2019-02-10T01:55:43.075Z,5.60
2019-02-10T01:58:12.131Z,5.60
2019-02-10T02:00:41.324Z,5.60
2019-02-10T02:03:10.382Z,5.60
2019-02-10T02:05:39.441Z,5.60
2019-02-10T02:08:08.514Z,5.60
2019-02-10T02:10:37.617Z,5.60
2019-02-10T02:13:06.673Z,5.60
2019-02-10T02:15:35.726Z,5.60
2019-02-10T02:18:04.785Z,5.60
2019-02-10T02:20:33.883Z,5.60
2019-02-10T02:23:02.982Z,5.60
2019-02-10T02:25:32.080Z,5.60
2019-02-10T02:28:01.199Z,5.70
2019-02-10T02:30:30.440Z,5.70
2019-02-10T02:32:59.515Z,5.70
2019-02-10T02:35:28.590Z,5.80
2019-02-10T02:37:57.681Z,5.80
2019-02-10T02:40:26.738Z,5.80
2019-02-10T02:42:55.782Z,5.80
2019-02-10T02:45:24.875Z,6.00
2019-02-10T02:47:53.942Z,6.00
2019-02-10T02:50:23.042Z,6.00
2019-02-10T02:52:52.122Z,6.10
2019-02-10T02:55:21.188Z,6.10
2019-02-10T02:57:50.248Z,6.10
2019-02-10T03:00:19.348Z,6.10
2019-02-10T03:02:48.378Z,6.20
2019-02-10T03:05:17.488Z,6.20
2019-02-10T03:07:46.545Z,6.20
2019-02-10T03:10:15.634Z,6.30
2019-02-10T03:12:44.692Z,6.30
2019-02-10T03:15:13.693Z,6.30
2019-02-10T03:17:42.764Z,6.30
2019-02-10T03:20:11.850Z,6.30
2019-02-10T03:22:40.831Z,6.40
2019-02-10T03:25:09.921Z,6.40
2019-02-10T03:27:38.989Z,6.40
2019-02-10T03:30:08.196Z,6.40
2019-02-10T03:32:37.208Z,6.40
2019-02-10T03:35:06.491Z,6.40
2019-02-10T03:37:35.593Z,6.40
2019-02-10T03:40:04.856Z,6.40
2019-02-10T03:42:33.944Z,6.40
2019-02-10T03:45:03.002Z,6.40
2019-02-10T03:47:32.063Z,6.40
2019-02-10T03:50:01.134Z,6.40
2019-02-10T03:52:30.240Z,6.40
2019-02-10T03:54:59.282Z,6.50
2019-02-10T03:57:28.367Z,6.50
2019-02-10T03:59:57.427Z,6.50
2019-02-10T04:02:26.715Z,6.50
2019-02-10T04:04:55.760Z,6.50
2019-02-10T04:07:24.845Z,6.50
2019-02-10T04:09:53.899Z,6.50
2019-02-10T04:12:22.999Z,6.50
2019-02-10T04:14:52.044Z,6.50
2019-02-10T04:17:21.076Z,6.50
2019-02-10T04:19:50.068Z,6.50
2019-02-10T04:22:19.141Z,6.50
2019-02-10T04:24:48.214Z,6.60
2019-02-10T04:27:17.287Z,6.60
2019-02-10T04:29:46.359Z,6.60
2019-02-10T04:32:15.466Z,6.50
2019-02-10T04:34:44.544Z,6.60
2019-02-10T04:37:13.630Z,6.60
2019-02-10T04:39:42.626Z,6.60
2019-02-10T04:42:11.628Z,6.60
2019-02-10T04:44:40.629Z,6.60
2019-02-10T04:47:09.686Z,6.60
2019-02-10T04:49:38.756Z,6.60
2019-02-10T04:52:07.966Z,6.60
2019-02-10T04:54:37.019Z,6.70
2019-02-10T04:57:06.116Z,6.70
2019-02-10T04:59:35.159Z,6.70
2019-02-10T05:02:04.466Z,6.70
2019-02-10T05:04:33.543Z,6.70
2019-02-10T05:07:02.854Z,6.70
2019-02-10T05:09:31.928Z,6.70
2019-02-10T05:12:01.046Z,6.80
2019-02-10T05:14:30.012Z,6.80
2019-02-10T05:16:59.037Z,6.80
2019-02-10T05:19:28.098Z,6.80
2019-02-10T05:21:57.215Z,6.80
2019-02-10T05:24:26.236Z,6.80
2019-02-10T05:26:55.248Z,6.80
2019-02-10T05:29:24.307Z,6.80
2019-02-10T05:31:53.399Z,6.90
2019-02-10T05:34:22.461Z,6.90
2019-02-10T05:36:51.553Z,6.90
2019-02-10T05:39:20.542Z,6.90
2019-02-10T05:41:49.618Z,6.90
2019-02-10T05:44:18.684Z,6.90
2019-02-10T05:46:47.777Z,7.00
2019-02-10T05:49:16.859Z,7.00
2019-02-10T05:51:46.035Z,7.00
2019-02-10T05:54:15.089Z,7.00
2019-02-10T05:56:44.089Z,7.00
2019-02-10T05:59:13.070Z,7.00
2019-02-10T06:02:02.448Z,7.00
2019-02-10T06:04:32.993Z,7.00
2019-02-10T06:07:04.845Z,7.00
2019-02-10T06:09:33.996Z,7.00
2019-02-10T06:12:03.064Z,7.00
2019-02-10T06:14:32.055Z,7.00
2019-02-10T06:17:01.139Z,7.00
2019-02-10T06:19:30.189Z,7.00
2019-02-10T06:21:59.266Z,7.00
2019-02-10T06:24:28.307Z,7.00
2019-02-10T06:26:57.391Z,7.00
2019-02-10T06:29:26.467Z,7.00
2019-02-10T06:31:55.553Z,7.00
2019-02-10T06:34:24.647Z,7.00
2019-02-10T06:36:53.731Z,7.10
2019-02-10T06:39:22.816Z,7.10
2019-02-10T06:41:51.878Z,7.20
2019-02-10T06:44:20.879Z,7.20
2019-02-10T06:46:50.033Z,7.20
2019-02-10T06:49:19.051Z,7.20
2019-02-10T06:51:48.145Z,7.30
2019-02-10T06:54:17.243Z,7.30
2019-02-10T06:56:46.307Z,7.30
2019-02-10T06:59:34.511Z,7.30
2019-02-10T07:02:07.813Z,7.30
2019-02-10T07:04:36.921Z,7.40
2019-02-10T07:07:05.995Z,7.50
2019-02-10T07:09:35.130Z,7.50
2019-02-10T07:12:39.611Z,7.50
2019-02-10T07:15:32.113Z,7.50
2019-02-10T07:18:40.639Z,7.50
2019-02-10T07:21:10.174Z,7.50
2019-02-10T07:23:59.625Z,7.50
2019-02-10T07:27:03.947Z,7.50
2019-02-10T07:30:01.732Z,7.50
2019-02-10T07:32:38.229Z,7.50
2019-02-10T07:35:41.192Z,7.50
2019-02-10T07:38:46.846Z,7.40
2019-02-10T07:41:58.462Z,7.50
2019-02-10T07:45:16.269Z,7.50
2019-02-10T07:48:07.675Z,7.50
2019-02-10T07:51:16.668Z,7.50
2019-02-10T07:54:12.455Z,7.50
2019-02-10T07:57:37.504Z,7.50
2019-02-10T08:00:17.956Z,7.60
2019-02-10T08:03:45.820Z,7.60
2019-02-10T08:07:09.806Z,7.60
2019-02-10T08:09:48.961Z,7.60
2019-02-10T08:12:55.564Z,7.60
2019-02-10T08:15:56.949Z,7.60
2019-02-10T08:18:48.316Z,7.70
2019-02-10T08:22:04.754Z,7.70
2019-02-10T08:24:58.743Z,7.80
2019-02-10T08:28:14.642Z,7.80
2019-02-10T08:31:39.998Z,7.90
2019-02-10T08:34:19.971Z,7.90
2019-02-10T08:37:12.090Z,8.00
2019-02-10T08:40:28.014Z,8.00
2019-02-10T08:43:39.889Z,8.00
2019-02-10T08:46:46.210Z,8.10
2019-02-10T08:50:08.361Z,8.10
2019-02-10T08:52:51.732Z,8.20
2019-02-10T08:55:15.591Z,8.20
2019-02-10T08:57:44.613Z,8.20
2019-02-10T09:00:13.688Z,8.30
2019-02-10T09:02:42.858Z,8.30
2019-02-10T09:05:11.949Z,8.30
2019-02-10T09:07:41.039Z,8.30
2019-02-10T09:10:11.444Z,8.30
2019-02-10T09:12:40.531Z,8.30
2019-02-10T09:15:10.757Z,8.40
2019-02-10T09:17:39.845Z,8.40
2019-02-10T09:20:09.240Z,8.40
2019-02-10T09:22:38.326Z,8.40
2019-02-10T09:25:08.310Z,8.40
2019-02-10T09:27:37.391Z,8.40
2019-02-10T09:30:07.490Z,8.40
2019-02-10T09:32:36.651Z,8.40
2019-02-10T09:35:06.297Z,8.40
2019-02-10T09:37:35.361Z,8.40
2019-02-10T09:40:05.275Z,8.40
2019-02-10T09:42:34.374Z,8.40
2019-02-10T09:45:03.554Z,8.40
2019-02-10T09:47:32.653Z,8.50
2019-02-10T09:50:01.741Z,8.50
2019-02-10T09:52:30.844Z,8.50
2019-02-10T09:54:59.904Z,8.50
2019-02-10T09:57:29.018Z,8.60
2019-02-10T09:59:58.090Z,8.50
2019-02-10T10:02:27.292Z,8.60
2019-02-10T10:04:56.337Z,8.60
2019-02-10T10:07:25.420Z,8.60
2019-02-10T10:09:54.489Z,8.60
2019-02-10T10:12:23.602Z,8.60
2019-02-10T10:14:52.741Z,8.70
2019-02-10T10:17:21.822Z,8.70
2019-02-10T10:19:50.912Z,8.70
2019-02-10T10:22:20.012Z,8.80
2019-02-10T10:24:50.518Z,8.80
2019-02-10T10:27:19.945Z,8.90
2019-02-10T10:29:49.034Z,8.90
2019-02-10T10:32:18.107Z,8.90
2019-02-10T10:34:47.236Z,9.00
2019-02-10T10:37:16.324Z,9.00
2019-02-10T10:39:45.526Z,8.90
2019-02-10T10:42:14.584Z,8.90
2019-02-10T10:44:43.662Z,8.90
2019-02-10T10:47:12.716Z,8.90
2019-02-10T10:49:44.597Z,8.80
2019-02-10T10:52:13.648Z,8.80
2019-02-10T10:54:43.122Z,8.80
2019-02-10T10:57:12.262Z,8.80
2019-02-10T10:59:41.392Z,8.80
2019-02-10T11:02:10.420Z,8.80
2019-02-10T11:04:39.497Z,8.80
2019-02-10T11:07:08.554Z,8.80
2019-02-10T11:09:37.648Z,8.70
2019-02-10T11:12:06.704Z,8.80
2019-02-10T11:14:35.779Z,8.80
2019-02-10T11:17:04.855Z,8.80
2019-02-10T11:19:33.958Z,8.70
2019-02-10T11:22:03.047Z,8.70
2019-02-10T11:24:32.149Z,8.80
2019-02-10T11:27:01.262Z,8.80
2019-02-10T11:29:30.371Z,8.80
2019-02-10T11:31:59.425Z,8.80
2019-02-10T11:34:28.498Z,8.80
2019-02-10T11:36:57.577Z,8.80
2019-02-10T11:39:26.718Z,8.80
2019-02-10T11:41:55.699Z,8.80
2019-02-10T11:44:24.805Z,8.80
2019-02-10T11:46:53.821Z,8.80
2019-02-10T11:49:22.912Z,8.70
2019-02-10T11:51:52.136Z,8.80
2019-02-10T11:54:21.316Z,8.70
2019-02-10T11:56:50.386Z,8.70
2019-02-10T11:59:19.474Z,8.70
2019-02-10T12:01:48.531Z,8.70
2019-02-10T12:04:17.619Z,8.60
2019-02-10T12:06:46.699Z,8.60
2019-02-10T12:09:15.778Z,8.60
2019-02-10T12:11:44.834Z,8.60
2019-02-10T12:14:13.864Z,8.60
2019-02-10T12:16:45.766Z,8.50
2019-02-10T12:19:14.860Z,8.50
2019-02-10T12:21:46.018Z,8.50
2019-02-10T12:24:15.190Z,8.50
2019-02-10T12:26:44.251Z,8.50
2019-02-10T12:29:13.406Z,8.50
2019-02-10T12:31:42.490Z,8.40
2019-02-10T12:34:11.636Z,8.30
2019-02-10T12:36:40.693Z,8.30
2019-02-10T12:39:09.789Z,8.20
2019-02-10T12:41:38.856Z,8.20
2019-02-10T12:44:07.934Z,8.10
2019-02-10T12:46:37.022Z,8.10
2019-02-10T12:49:06.160Z,8.00
2019-02-10T12:51:35.245Z,8.00
2019-02-10T12:54:04.318Z,8.00
2019-02-10T12:56:33.324Z,8.00
2019-02-10T12:59:02.402Z,8.00
2019-02-10T13:01:31.481Z,8.00
2019-02-10T13:04:00.664Z,7.90
2019-02-10T13:06:29.730Z,7.90
2019-02-10T13:08:58.856Z,7.90
2019-02-10T13:11:28.014Z,7.90
2019-02-10T13:13:57.161Z,7.80
2019-02-10T13:16:26.264Z,7.80
2019-02-10T13:18:55.332Z,7.80
2019-02-10T13:21:24.452Z,7.70
2019-02-10T13:23:53.573Z,7.70
2019-02-10T13:26:22.674Z,7.70
2019-02-10T13:28:51.731Z,7.70
2019-02-10T13:31:20.864Z,7.70
2019-02-10T13:33:49.925Z,7.70
2019-02-10T13:36:19.043Z,7.70
2019-02-10T13:38:48.159Z,7.60
2019-02-10T13:41:17.268Z,7.60
2019-02-10T13:43:46.355Z,7.60
2019-02-10T13:46:15.497Z,7.50
2019-02-10T13:48:44.581Z,7.50
2019-02-10T13:51:15.509Z,7.50
2019-02-10T13:53:44.680Z,7.50
2019-02-10T13:56:13.753Z,7.40
2019-02-10T13:58:42.829Z,7.30
2019-02-10T14:01:11.983Z,7.30
2019-02-10T14:03:41.074Z,7.30
2019-02-10T14:06:10.153Z,7.30
2019-02-10T14:08:39.254Z,7.30
2019-02-10T14:11:08.370Z,7.40
2019-02-10T14:13:37.441Z,7.40
2019-02-10T14:16:06.550Z,7.40
2019-02-10T14:18:35.715Z,7.50
2019-02-10T14:21:04.811Z,7.50
2019-02-10T14:23:33.900Z,7.50
2019-02-10T14:26:03.043Z,7.50
2019-02-10T14:28:32.090Z,7.50
2019-02-10T14:31:01.195Z,7.50
2019-02-10T14:33:38.528Z,7.60
2019-02-10T14:36:02.918Z,7.60
2019-02-10T14:38:36.325Z,7.60
2019-02-10T14:41:02.978Z,7.70
2019-02-10T14:43:32.085Z,7.70
2019-02-10T14:46:01.190Z,7.60
2019-02-10T14:48:30.263Z,7.60
2019-02-10T14:50:59.396Z,7.50
2019-02-10T14:53:28.472Z,7.40
2019-02-10T14:55:57.566Z,7.30
2019-02-10T14:58:26.763Z,7.30
2019-02-10T15:00:56.178Z,7.30
2019-02-10T15:03:25.306Z,7.20
2019-02-10T15:05:54.368Z,7.20
2019-02-10T15:08:23.482Z,7.20
2019-02-10T15:10:52.580Z,7.20
2019-02-10T15:13:21.697Z,7.20
2019-02-10T15:15:50.758Z,7.20
2019-02-10T15:18:19.865Z,7.20
2019-02-10T15:20:48.926Z,7.10
2019-02-10T15:23:18.065Z,7.10
2019-02-10T15:25:47.134Z,7.10
2019-02-10T15:28:16.260Z,7.10
2019-02-10T15:30:45.351Z,7.10
2019-02-10T15:33:14.476Z,7.10
2019-02-10T15:35:43.602Z,7.10
2019-02-10T15:38:12.745Z,7.10
2019-02-10T15:40:49.700Z,7.10
2019-02-10T15:43:12.653Z,7.10
2019-02-10T15:45:41.757Z,7.00
2019-02-10T15:48:10.910Z,7.00
2019-02-10T15:50:40.017Z,6.90
2019-02-10T15:53:09.119Z,6.80
2019-02-10T15:55:38.144Z,6.70
2019-02-10T15:58:07.231Z,6.70
2019-02-10T16:00:37.024Z,6.60
2019-02-10T16:03:06.074Z,6.60
2019-02-10T16:05:35.161Z,6.60
2019-02-10T16:08:04.191Z,6.60
2019-02-10T16:10:33.326Z,6.50
2019-02-10T16:13:02.397Z,6.50
2019-02-10T16:15:31.479Z,6.50
2019-02-10T16:18:00.543Z,6.50
2019-02-10T16:20:29.635Z,6.40
2019-02-10T16:22:58.737Z,6.40
2019-02-10T16:25:27.837Z,6.40
2019-02-10T16:27:57.000Z,6.30
2019-02-10T16:30:26.079Z,6.30
2019-02-10T16:32:55.180Z,6.30
2019-02-10T16:35:24.351Z,6.30
2019-02-10T16:37:53.466Z,6.20
2019-02-10T16:40:22.582Z,6.30
2019-02-10T16:42:51.708Z,6.20
2019-02-10T16:45:20.830Z,6.20
2019-02-10T16:47:49.971Z,6.20
2019-02-10T16:50:18.960Z,6.20
2019-02-10T16:52:48.058Z,6.20
2019-02-10T16:55:17.138Z,6.10
2019-02-10T16:57:46.235Z,6.10
2019-02-10T17:00:15.564Z,6.10
2019-02-10T17:02:44.620Z,6.10
2019-02-10T17:05:13.826Z,6.20
2019-02-10T17:07:42.886Z,6.10
2019-02-10T17:10:12.726Z,6.00
2019-02-10T17:12:41.820Z,6.00
2019-02-10T17:15:11.353Z,5.90
2019-02-10T17:17:40.410Z,5.90
2019-02-10T17:20:10.166Z,5.90
2019-02-10T17:22:39.237Z,5.80
2019-02-10T17:25:10.194Z,5.80
2019-02-10T17:27:39.263Z,5.80
2019-02-10T17:30:08.843Z,5.80
2019-02-10T17:32:37.920Z,5.80
2019-02-10T17:35:07.627Z,5.80
2019-02-10T17:37:36.701Z,5.80
2019-02-10T17:40:08.128Z,5.80
2019-02-10T17:42:37.250Z,5.80
2019-02-10T17:45:07.200Z,5.80
2019-02-10T17:47:36.280Z,5.80
2019-02-10T17:50:05.919Z,5.80
2019-02-10T17:52:35.017Z,5.80
2019-02-10T17:55:04.363Z,5.70
2019-02-10T17:57:33.359Z,5.70
2019-02-10T18:00:02.484Z,5.70
2019-02-10T18:02:31.592Z,5.70
2019-02-10T18:05:00.692Z,5.60
2019-02-10T18:07:29.713Z,5.50
2019-02-10T18:09:58.799Z,5.40
2019-02-10T18:12:27.906Z,5.30
2019-02-10T18:15:10.344Z,5.30
2019-02-10T18:17:54.015Z,5.30
2019-02-10T18:20:42.180Z,5.30
2019-02-10T18:23:30.258Z,5.20
2019-02-10T18:26:21.942Z,5.00
2019-02-10T18:29:12.623Z,5.00
2019-02-10T18:31:59.021Z,4.90
2019-02-10T18:34:53.215Z,4.90
2019-02-10T18:37:38.870Z,4.90
2019-02-10T18:40:15.377Z,5.00
2019-02-10T18:43:09.699Z,5.00
2019-02-10T18:45:46.631Z,5.00
2019-02-10T18:48:40.613Z,5.00
2019-02-10T18:51:15.424Z,5.00
2019-02-10T18:54:00.774Z,5.00
2019-02-10T18:56:48.876Z,5.00
2019-02-10T18:59:37.401Z,4.90
2019-02-10T19:02:31.583Z,5.00
2019-02-10T19:05:11.933Z,4.90
2019-02-10T19:07:52.005Z,5.00
2019-02-10T19:10:55.321Z,5.00
2019-02-10T19:13:43.457Z,5.00
2019-02-10T19:16:31.576Z,5.00
2019-02-10T19:19:18.281Z,5.00
2019-02-10T19:22:06.452Z,4.90
2019-02-10T19:24:57.346Z,4.90
2019-02-10T19:27:52.339Z,4.90
2019-02-10T19:30:43.268Z,4.90
2019-02-10T19:33:29.879Z,4.90
2019-02-10T19:36:24.070Z,4.80
2019-02-10T19:39:07.192Z,4.80
2019-02-10T19:41:55.711Z,4.80
2019-02-10T19:44:32.594Z,4.80
2019-02-10T19:47:18.977Z,4.80
2019-02-10T19:49:59.677Z,4.80
2019-02-10T19:52:50.880Z,4.80
2019-02-10T19:55:35.346Z,4.80
2019-02-10T19:58:23.520Z,4.80
2019-02-10T20:01:10.147Z,4.80
2019-02-10T20:03:46.767Z,4.80
2019-02-10T20:06:22.460Z,4.80
2019-02-10T20:09:04.683Z,4.80
2019-02-10T20:11:51.645Z,4.80
2019-02-10T20:14:49.050Z,4.70
2019-02-10T20:17:37.221Z,4.80
2019-02-10T20:20:23.193Z,4.80
2019-02-10T20:23:04.714Z,4.80
2019-02-10T20:25:59.007Z,4.80
2019-02-10T20:28:45.787Z,4.80
2019-02-10T20:31:34.611Z,4.80
2019-02-10T20:34:16.401Z,4.80
2019-02-10T20:37:03.216Z,4.80
2019-02-10T20:39:49.993Z,4.70
2019-02-10T20:42:38.167Z,4.70
2019-02-10T20:45:25.067Z,4.70
2019-02-10T20:48:12.018Z,4.70
2019-02-10T20:50:56.719Z,4.70
2019-02-10T20:53:44.899Z,4.60
2019-02-10T20:56:21.764Z,4.70
2019-02-10T20:59:01.830Z,4.70
2019-02-10T21:01:42.747Z,4.70
2019-02-10T21:04:21.487Z,4.70
2019-02-10T21:07:09.680Z,4.60
2019-02-10T21:09:53.940Z,4.70
2019-02-10T21:12:59.973Z,4.70
2019-02-10T21:15:45.428Z,4.70
2019-02-10T21:18:32.076Z,4.80
2019-02-10T21:21:22.420Z,4.80
2019-02-10T21:24:16.568Z,4.90
2019-02-10T21:26:56.317Z,4.90
2019-02-10T21:29:41.911Z,4.80
2019-02-10T21:32:33.052Z,4.80
2019-02-10T21:35:12.723Z,4.80
2019-02-10T21:37:50.792Z,4.70
2019-02-10T21:40:48.824Z,4.80
2019-02-10T21:43:42.990Z,4.80
2019-02-10T21:46:21.043Z,4.80
2019-02-10T21:48:57.309Z,4.70
2019-02-10T21:51:26.395Z,4.70
2019-02-10T21:53:55.452Z,4.70
2019-02-10T21:56:24.526Z,4.60
2019-02-10T21:58:53.620Z,4.60
2019-02-10T22:01:22.696Z,4.60
2019-02-10T22:03:51.810Z,4.60
2019-02-10T22:06:20.931Z,4.60
2019-02-10T22:08:50.026Z,4.60
2019-02-10T22:11:19.095Z,4.60
2019-02-10T22:13:48.153Z,4.60
2019-02-10T22:16:17.251Z,4.60
2019-02-10T22:18:46.322Z,4.60
2019-02-10T22:21:15.402Z,4.60
2019-02-10T22:23:44.947Z,4.60
2019-02-10T22:26:14.052Z,4.60
2019-02-10T22:28:43.165Z,4.70
2019-02-10T22:31:18.638Z,4.70
2019-02-10T22:33:43.049Z,4.70
2019-02-10T22:36:12.118Z,4.70
2019-02-10T22:38:41.209Z,4.70
2019-02-10T22:41:10.274Z,4.70
2019-02-10T22:43:39.238Z,4.70
2019-02-10T22:46:08.424Z,4.70
2019-02-10T22:48:37.516Z,4.80
2019-02-10T22:51:06.624Z,4.80
2019-02-10T22:53:35.720Z,4.80
2019-02-10T22:56:04.796Z,4.80
2019-02-10T22:58:33.899Z,4.80
2019-02-10T23:01:05.591Z,4.90
2019-02-10T23:03:34.679Z,4.90
2019-02-10T23:06:03.724Z,4.80
2019-02-10T23:08:32.838Z,4.80
2019-02-10T23:11:01.914Z,4.60
2019-02-10T23:13:31.108Z,4.40
2019-02-10T23:16:00.261Z,4.30
2019-02-10T23:18:29.264Z,4.10
2019-02-10T23:20:58.333Z,4.10
2019-02-10T23:23:27.391Z,4.10
2019-02-10T23:25:56.471Z,4.20
2019-02-10T23:28:25.744Z,4.20
2019-02-10T23:30:54.824Z,4.30
2019-02-10T23:33:23.920Z,4.30
2019-02-10T23:35:53.019Z,4.40
2019-02-10T23:38:22.106Z,4.50
2019-02-10T23:40:51.158Z,4.50
2019-02-10T23:43:20.236Z,4.50
2019-02-10T23:45:49.326Z,4.60
2019-02-10T23:48:18.361Z,4.60
2019-02-10T23:50:47.482Z,4.60
2019-02-10T23:53:16.470Z,4.70
2019-02-10T23:55:45.491Z,4.60
2019-02-10T23:58:14.568Z,4.60
